createdAt,value
2022-07-27T00:00:19.210Z,66.19
2022-07-27T00:05:39.420Z,66.65
2022-07-27T00:10:41.399Z,66.02
2022-07-27T00:15:43.479Z,65.28
2022-07-27T00:20:45.566Z,66.56
2022-07-27T00:25:48.053Z,67.14
2022-07-27T00:30:50.237Z,66.84
2022-07-27T00:35:52.115Z,68.96
2022-07-27T00:40:54.195Z,68.36
2022-07-27T00:45:56.083Z,65.50
2022-07-27T00:50:58.774Z,63.80
2022-07-27T00:56:00.764Z,63.88
2022-07-27T01:01:03.550Z,62.45
2022-07-27T01:06:05.833Z,62.51
2022-07-27T01:11:09.757Z,64.46
2022-07-27T01:16:12.409Z,65.75
2022-07-27T01:21:14.433Z,67.37
2022-07-27T01:26:16.515Z,68.64
2022-07-27T01:31:18.585Z,69.38
2022-07-27T01:36:20.784Z,71.50
2022-07-27T01:41:23.274Z,71.43
2022-07-27T01:46:25.394Z,71.68
2022-07-27T01:51:27.744Z,73.00
2022-07-27T01:56:29.724Z,74.54
2022-07-27T02:01:32.210Z,74.73
2022-07-27T02:06:34.298Z,75.60
2022-07-27T02:11:54.917Z,75.78
2022-07-27T02:16:56.892Z,75.83
2022-07-27T02:21:58.871Z,76.57
2022-07-27T02:27:02.386Z,77.63
2022-07-27T02:32:05.799Z,78.25
2022-07-27T02:37:08.188Z,78.54
2022-07-27T02:42:10.066Z,78.07
2022-07-27T02:47:12.052Z,78.20
2022-07-27T02:52:14.231Z,79.09
2022-07-27T02:57:16.209Z,80.10
2022-07-27T03:02:18.601Z,79.08
2022-07-27T03:07:20.579Z,78.36
2022-07-27T03:12:22.555Z,77.88
2022-07-27T03:17:24.536Z,77.51
2022-07-27T03:22:30.408Z,77.46
2022-07-27T03:27:32.693Z,77.45
2022-07-27T03:32:34.580Z,77.37
2022-07-27T03:37:36.551Z,77.34
2022-07-27T03:42:38.734Z,77.76
2022-07-27T03:47:41.021Z,77.82
2022-07-27T03:52:45.474Z,78.23
2022-07-27T03:57:48.155Z,77.84
2022-07-27T04:02:50.825Z,74.36
2022-07-27T04:07:55.059Z,66.88
2022-07-27T04:12:57.172Z,59.40
2022-07-27T04:18:00.634Z,53.35
2022-07-27T04:23:02.768Z,50.06
2022-07-27T04:28:05.254Z,46.03
2022-07-27T04:33:07.232Z,43.44
2022-07-27T04:38:09.110Z,41.89
2022-07-27T04:43:10.921Z,40.41
2022-07-27T04:48:14.603Z,40.98
2022-07-27T04:53:16.587Z,39.28
2022-07-27T04:58:18.772Z,38.85
2022-07-27T05:03:21.054Z,37.81
2022-07-27T05:08:23.246Z,37.97
2022-07-27T05:13:25.220Z,36.91
2022-07-27T05:18:27.299Z,36.83
2022-07-27T05:23:29.690Z,35.59
2022-07-27T05:28:31.878Z,34.95
2022-07-27T05:33:33.903Z,34.90
2022-07-27T05:38:39.419Z,36.14
2022-07-27T05:43:41.615Z,33.67
2022-07-27T05:48:43.641Z,32.50
2022-07-27T05:53:45.869Z,31.60
2022-07-27T05:58:47.844Z,30.92
2022-07-27T06:03:50.017Z,30.09
2022-07-27T06:08:52.322Z,28.89
2022-07-27T06:13:55.631Z,28.58
2022-07-27T06:18:57.713Z,29.84
2022-07-27T06:24:00.413Z,28.35
2022-07-27T06:29:02.490Z,28.11
2022-07-27T06:34:12.133Z,27.08
2022-07-27T06:39:16.804Z,26.78
2022-07-27T06:44:18.771Z,26.00
2022-07-27T06:49:20.977Z,25.91
2022-07-27T06:54:23.346Z,26.28
2022-07-27T06:59:26.147Z,25.97
2022-07-27T07:04:45.530Z,25.34
2022-07-27T07:09:47.409Z,25.40
2022-07-27T07:14:49.391Z,24.89
2022-07-27T07:19:51.370Z,25.09
2022-07-27T07:24:53.348Z,26.18
2022-07-27T07:29:55.577Z,27.08
2022-07-27T07:34:57.617Z,27.84
2022-07-27T07:40:12.693Z,28.28
2022-07-27T07:45:23.588Z,27.19
2022-07-27T07:50:26.489Z,27.08
2022-07-27T07:55:29.492Z,26.14
2022-07-27T08:00:32.398Z,25.92
2022-07-27T08:05:34.883Z,26.20
2022-07-27T08:10:36.863Z,27.66
2022-07-27T08:15:39.085Z,28.70
2022-07-27T08:20:41.644Z,29.99
2022-07-27T08:25:44.134Z,30.84
2022-07-27T08:30:46.728Z,31.56
2022-07-27T08:35:48.706Z,31.45
2022-07-27T08:40:51.085Z,32.30
2022-07-27T08:45:57.927Z,32.72
2022-07-27T08:51:00.283Z,33.10
2022-07-27T08:56:03.189Z,32.90
2022-07-27T09:01:05.671Z,34.09
2022-07-27T09:06:07.854Z,35.08
2022-07-27T09:11:16.085Z,34.90
2022-07-27T09:16:58.116Z,34.45
2022-07-27T09:21:53.117Z,34.16
2022-07-27T09:27:03.196Z,33.07
2022-07-27T09:32:15.510Z,29.54
2022-07-27T09:37:26.560Z,28.34
2022-07-27T09:43:05.453Z,29.63
2022-07-27T09:47:52.679Z,30.71
2022-07-27T09:52:54.762Z,31.39
2022-07-27T09:57:58.708Z,32.22
2022-07-27T10:03:01.485Z,32.20
2022-07-27T10:08:03.773Z,33.05
2022-07-27T10:13:05.876Z,33.61
2022-07-27T10:18:14.084Z,35.01
2022-07-27T10:23:37.843Z,37.01
2022-07-27T10:28:50.754Z,36.86
2022-07-27T10:33:56.273Z,36.72
2022-07-27T10:39:01.016Z,38.08
2022-07-27T10:44:18.062Z,37.49
2022-07-27T10:49:25.876Z,38.51
2022-07-27T10:54:38.596Z,38.04
2022-07-27T11:00:07.386Z,37.74
2022-07-27T11:05:24.928Z,37.38
2022-07-27T11:10:43.729Z,38.42
2022-07-27T11:16:09.691Z,37.18
2022-07-27T11:21:26.403Z,36.39
2022-07-27T11:26:36.154Z,35.60
2022-07-27T11:31:57.714Z,35.47
2022-07-27T11:37:05.065Z,34.60
2022-07-27T11:42:12.394Z,35.12
2022-07-27T11:47:20.013Z,35.31
2022-07-27T11:52:23.427Z,35.15
2022-07-27T11:57:32.519Z,34.45
2022-07-27T12:02:34.598Z,33.93
2022-07-27T12:07:36.636Z,34.01
2022-07-27T12:12:38.829Z,34.21
2022-07-27T12:17:42.847Z,33.35
2022-07-27T12:22:47.596Z,32.70
2022-07-27T12:28:04.119Z,32.66
2022-07-27T12:33:30.672Z,33.21
2022-07-27T12:38:43.295Z,33.39
2022-07-27T12:43:47.032Z,33.76
2022-07-27T12:48:49.074Z,34.55
2022-07-27T12:53:51.589Z,34.80
2022-07-27T12:59:04.187Z,33.69
2022-07-27T13:04:06.098Z,34.22
2022-07-27T13:09:08.383Z,33.82
2022-07-27T13:14:10.363Z,34.30
2022-07-27T13:19:16.237Z,33.73
2022-07-27T13:24:20.071Z,33.79
2022-07-27T13:29:22.549Z,34.17
2022-07-27T13:34:24.837Z,34.78
2022-07-27T13:39:26.714Z,35.33
2022-07-27T13:45:00.477Z,36.32
2022-07-27T13:49:50.740Z,36.37
2022-07-27T13:54:52.721Z,37.24
2022-07-27T13:59:54.698Z,36.83
2022-07-27T14:04:56.588Z,37.77
2022-07-27T14:10:18.831Z,39.26
2022-07-27T14:15:20.811Z,39.18
2022-07-27T14:20:23.817Z,38.17
2022-07-27T14:25:26.617Z,38.17
2022-07-27T14:30:29.722Z,38.01
2022-07-27T14:35:33.744Z,37.67
2022-07-27T14:40:40.167Z,38.02
2022-07-27T14:45:44.486Z,38.53
2022-07-27T14:50:48.287Z,39.60
2022-07-27T14:55:50.577Z,38.36
2022-07-27T15:00:52.746Z,38.53
2022-07-27T15:05:54.944Z,39.75
2022-07-27T15:10:57.334Z,40.24
2022-07-27T15:15:59.466Z,41.23
2022-07-27T15:21:01.799Z,40.61
2022-07-27T15:26:15.463Z,40.91
2022-07-27T15:31:18.168Z,40.73
2022-07-27T15:36:32.442Z,40.92
2022-07-27T15:41:37.468Z,41.82
2022-07-27T15:46:39.717Z,41.50
2022-07-27T15:51:41.837Z,41.19
2022-07-27T15:56:44.643Z,40.56
2022-07-27T16:01:47.171Z,40.76
2022-07-27T16:06:49.110Z,40.62
2022-07-27T16:11:50.985Z,40.85
2022-07-27T16:16:52.869Z,41.53
2022-07-27T16:21:56.030Z,41.33
2022-07-27T16:26:58.665Z,42.34
2022-07-27T16:32:01.769Z,42.42
2022-07-27T16:37:04.361Z,42.98
2022-07-27T16:42:07.947Z,42.18
2022-07-27T16:47:10.282Z,42.79
2022-07-27T16:52:12.458Z,43.38
2022-07-27T16:57:14.547Z,42.62
2022-07-27T17:02:17.102Z,42.91
2022-07-27T17:07:19.156Z,43.15
2022-07-27T17:12:21.395Z,43.57
2022-07-27T17:17:25.933Z,44.35
2022-07-27T17:22:28.018Z,45.35
2022-07-27T17:27:30.099Z,45.49
2022-07-27T17:32:33.510Z,45.64
2022-07-27T17:38:03.447Z,45.11
2022-07-27T17:42:57.540Z,46.87
2022-07-27T17:48:00.056Z,48.12
2022-07-27T17:53:02.834Z,49.25
2022-07-27T17:58:04.964Z,49.93
2022-07-27T18:03:09.250Z,49.58
2022-07-27T18:08:11.842Z,50.08
2022-07-27T18:13:13.840Z,52.34
2022-07-27T18:18:25.118Z,52.65
2022-07-27T18:23:27.305Z,52.11
2022-07-27T18:28:33.468Z,52.00
2022-07-27T18:33:45.603Z,51.78
2022-07-27T18:38:50.022Z,53.12
2022-07-27T18:43:53.724Z,53.55
2022-07-27T18:48:58.170Z,53.46
2022-07-27T18:54:01.917Z,54.64
2022-07-27T18:59:03.891Z,55.20
2022-07-27T19:04:07.226Z,55.64
2022-07-27T19:09:11.272Z,56.77
2022-07-27T19:14:14.033Z,57.11
2022-07-27T19:19:22.310Z,57.49
2022-07-27T19:24:25.156Z,57.69
2022-07-27T19:29:27.241Z,57.72
2022-07-27T19:34:29.294Z,58.36
2022-07-27T19:40:02.087Z,58.48
2022-07-27T19:44:55.962Z,58.23
2022-07-27T19:50:02.335Z,59.15
2022-07-27T19:55:09.126Z,59.69
2022-07-27T20:05:38.030Z,59.82
2022-07-27T20:10:40.725Z,60.21
2022-07-27T20:15:43.014Z,60.47
2022-07-27T20:20:45.562Z,60.67
2022-07-27T20:25:47.689Z,61.49
2022-07-27T20:30:49.833Z,61.07
2022-07-27T20:35:51.954Z,60.82
2022-07-27T20:40:55.062Z,60.94
2022-07-27T20:45:57.924Z,61.25
2022-07-27T20:51:00.377Z,62.07
2022-07-27T20:56:02.947Z,63.57
2022-07-27T21:01:05.277Z,63.89
2022-07-27T21:06:07.533Z,62.44
2022-07-27T21:11:09.767Z,62.32
2022-07-27T21:16:11.723Z,61.85
2022-07-27T21:21:13.660Z,59.07
2022-07-27T21:26:18.215Z,59.39
2022-07-27T21:31:20.553Z,60.87
2022-07-27T21:36:23.594Z,61.12
2022-07-27T21:41:25.654Z,62.05
2022-07-27T21:46:27.703Z,63.86
2022-07-27T21:51:30.046Z,63.85
2022-07-27T21:56:41.889Z,64.44
2022-07-27T22:01:45.061Z,63.08
2022-07-27T22:06:47.042Z,64.37
2022-07-27T22:11:49.226Z,64.57
2022-07-27T22:16:52.690Z,64.85
2022-07-27T22:21:55.354Z,63.41
2022-07-27T22:26:57.424Z,63.79
2022-07-27T22:31:59.314Z,62.55
2022-07-27T22:37:02.911Z,62.14
2022-07-27T22:42:06.325Z,63.69
2022-07-27T22:47:09.229Z,63.07
2022-07-27T22:52:12.028Z,62.40
2022-07-27T22:57:14.512Z,62.19
2022-07-27T23:02:16.409Z,63.31
2022-07-27T23:07:18.377Z,63.87
2022-07-27T23:12:20.352Z,63.19
2022-07-27T23:17:22.332Z,64.12
2022-07-27T23:22:24.313Z,64.02
2022-07-27T23:27:26.287Z,64.87
2022-07-27T23:32:28.369Z,63.14
2022-07-27T23:37:30.349Z,63.86
2022-07-27T23:42:34.686Z,64.50
2022-07-27T23:47:36.767Z,65.63
2022-07-27T23:52:39.666Z,64.12
2022-07-27T23:57:42.364Z,64.92
